Terminal Aerodrome Forecast
Issued by NWS

Home | Current Version | Previous Version | Text Only | Print | Product List | Glossary On
Versions: 1 2 3 4 5 6 7 8 9 10 11 12 13 14 15 16 17 18 19 20 21
000
FTUS44 KLZK 221700
TAFHOT
TAF
KHOT 221739Z 2218/2318 17007KT 6SM BR VCSH BKN004 OVC015
      WS020/22040KT
      TEMPO 2218/2220 3SM BR OVC004
     FM222000 17008KT P6SM VCSH BKN008 OVC025 WS020/22040KT
      TEMPO 2220/2222 4SM -RA BR OVC008
     FM222200 18009KT P6SM VCSH SCT015 OVC025
      TEMPO 2222/2224 5SM -SHRA BR OVC010
     FM230000 21009KT P6SM VCSH BKN035 BKN250
     FM230400 29007G15KT P6SM VCSH BKN025 BKN250=

USA.gov is the U.S. government's official web portal to all federal, state and local government web resources and services.